createdAt,value
2022-10-17T00:07:41.478Z,12.19
2022-10-17T00:16:04.457Z,12.13
2022-10-17T00:24:27.164Z,12.00
2022-10-17T00:32:49.798Z,11.96
2022-10-17T00:41:16.197Z,12.06
2022-10-17T00:49:40.894Z,12.12
2022-10-17T00:58:05.719Z,12.17
2022-10-17T01:06:28.380Z,12.17
2022-10-17T01:15:12.488Z,12.12
2022-10-17T01:23:41.154Z,11.98
2022-10-17T01:32:15.177Z,11.85
2022-10-17T01:41:01.640Z,11.80
2022-10-17T01:49:28.405Z,11.70
2022-10-17T01:57:55.404Z,11.61
2022-10-17T02:06:18.927Z,11.63
2022-10-17T02:15:07.786Z,11.66
2022-10-17T02:23:55.513Z,11.67
2022-10-17T02:32:24.790Z,11.69
2022-10-17T02:40:51.582Z,11.60
2022-10-17T02:49:37.846Z,11.45
2022-10-17T02:58:07.167Z,11.41
2022-10-17T03:06:33.497Z,11.36
2022-10-17T03:14:56.317Z,11.26
2022-10-17T03:23:19.655Z,11.30
2022-10-17T03:31:43.101Z,11.36
2022-10-17T03:40:06.710Z,11.29
2022-10-17T03:48:30.908Z,11.22
2022-10-17T03:56:54.679Z,11.00
2022-10-17T04:05:18.591Z,10.91
2022-10-17T04:13:42.384Z,11.04
2022-10-17T04:22:05.188Z,11.20
2022-10-17T04:30:29.931Z,11.26
2022-10-17T04:38:52.803Z,11.28
2022-10-17T04:47:15.814Z,11.16
2022-10-17T04:55:39.623Z,11.07
2022-10-17T05:04:03.331Z,11.02
2022-10-17T05:12:26.853Z,10.89
2022-10-17T05:20:50.021Z,10.86
2022-10-17T05:29:14.332Z,10.93
2022-10-17T05:37:40.731Z,10.98
2022-10-17T05:46:05.424Z,11.07
2022-10-17T05:54:28.873Z,11.24
2022-10-17T06:02:51.756Z,11.37
2022-10-17T06:11:15.543Z,11.64
2022-10-17T06:19:38.291Z,11.87
2022-10-17T06:28:01.289Z,12.18
2022-10-17T06:36:24.668Z,12.56
2022-10-17T06:44:47.500Z,12.62
2022-10-17T06:53:29.769Z,12.64
2022-10-17T07:02:24.242Z,13.04
2022-10-17T07:10:48.894Z,13.47
2022-10-17T07:19:11.688Z,13.81
2022-10-17T07:27:35.282Z,14.13
2022-10-17T07:36:00.331Z,14.35
2022-10-17T07:44:23.249Z,14.57
2022-10-17T07:52:47.355Z,14.98
2022-10-17T08:01:15.525Z,15.28
2022-10-17T08:09:39.712Z,15.60
2022-10-17T08:18:02.492Z,16.10
2022-10-17T08:26:25.242Z,16.51
2022-10-17T08:34:48.433Z,16.89
2022-10-17T08:43:38.073Z,17.20
2022-10-17T08:52:32.133Z,17.71
2022-10-17T09:01:26.207Z,18.01
2022-10-17T09:09:52.068Z,18.23
2022-10-17T09:18:26.361Z,18.51
2022-10-17T09:26:51.358Z,18.72
2022-10-17T09:35:15.034Z,18.87
2022-10-17T09:43:39.623Z,19.02
2022-10-17T09:52:05.585Z,19.42
2022-10-17T10:00:43.628Z,19.90
2022-10-17T10:09:17.963Z,20.28
2022-10-17T10:17:41.999Z,20.37
2022-10-17T10:26:12.965Z,20.73
2022-10-17T10:34:37.812Z,21.07
2022-10-17T10:43:05.332Z,21.26
2022-10-17T10:51:41.409Z,21.75
2022-10-17T11:00:17.371Z,24.08
2022-10-17T11:08:48.800Z,27.78
2022-10-17T11:17:36.465Z,28.58
2022-10-17T11:26:05.680Z,30.05
2022-10-17T11:34:33.380Z,31.63
2022-10-17T11:43:13.592Z,33.33
2022-10-17T11:52:00.630Z,35.49
2022-10-17T12:00:34.837Z,37.48
2022-10-17T12:09:08.709Z,40.12
2022-10-17T12:17:36.897Z,40.70
2022-10-17T12:26:06.465Z,39.51
2022-10-17T12:34:29.465Z,38.86
2022-10-17T12:42:52.249Z,38.82
2022-10-17T12:51:34.919Z,39.49
2022-10-17T13:00:03.884Z,39.52
2022-10-17T13:08:45.187Z,39.86
2022-10-17T13:17:22.803Z,38.06
2022-10-17T13:25:45.506Z,37.37
2022-10-17T13:34:20.384Z,38.00
2022-10-17T13:42:43.369Z,37.84
2022-10-17T13:51:10.302Z,35.70
2022-10-17T13:59:47.715Z,33.80
2022-10-17T14:08:22.007Z,31.49
2022-10-17T14:16:46.688Z,29.81
2022-10-17T14:25:30.773Z,29.37
2022-10-17T14:33:55.113Z,28.47
2022-10-17T14:42:23.242Z,27.00
2022-10-17T14:51:12.376Z,25.27
2022-10-17T14:59:53.428Z,23.59
2022-10-17T15:08:18.394Z,22.12
2022-10-17T15:16:41.028Z,20.88
2022-10-17T15:25:03.963Z,19.93
2022-10-17T15:33:26.756Z,19.21
2022-10-17T15:41:49.492Z,18.68
2022-10-17T15:50:15.150Z,18.10
2022-10-17T15:58:42.869Z,17.64
2022-10-17T16:07:07.357Z,17.47
2022-10-17T16:15:30.092Z,17.38
2022-10-17T16:23:52.787Z,17.29
2022-10-17T16:32:15.443Z,17.21
2022-10-17T16:40:39.810Z,17.19
2022-10-17T16:49:04.581Z,17.10
2022-10-17T16:57:27.305Z,16.92
2022-10-17T17:05:51.797Z,16.87
2022-10-17T17:14:14.618Z,16.87
2022-10-17T17:22:37.291Z,16.77
2022-10-17T17:31:01.397Z,16.60
2022-10-17T17:39:24.163Z,16.45
2022-10-17T17:47:46.828Z,16.43
2022-10-17T17:56:14.183Z,16.29
2022-10-17T18:04:36.822Z,16.12
2022-10-17T18:12:59.569Z,16.02
2022-10-17T18:21:22.650Z,15.88
2022-10-17T18:29:48.754Z,15.72
2022-10-17T18:38:11.797Z,15.63
2022-10-17T18:46:40.105Z,15.55
2022-10-17T18:55:03.221Z,15.37
2022-10-17T19:03:25.857Z,15.34
2022-10-17T19:11:48.624Z,15.26
2022-10-17T19:20:11.373Z,15.14
2022-10-17T19:28:35.197Z,15.13
2022-10-17T19:36:57.938Z,15.05
2022-10-17T19:45:20.780Z,14.97
2022-10-17T19:54:00.411Z,15.03
2022-10-17T20:02:25.708Z,15.00
2022-10-17T20:10:48.786Z,14.84
2022-10-17T20:19:13.622Z,14.72
2022-10-17T20:27:36.543Z,14.58
2022-10-17T20:35:59.306Z,14.42
2022-10-17T20:44:22.102Z,14.31
2022-10-17T20:52:44.731Z,14.15
2022-10-17T21:01:09.267Z,14.03
2022-10-17T21:09:32.061Z,14.00
2022-10-17T21:17:54.784Z,13.98
2022-10-17T21:26:18.442Z,13.86
2022-10-17T21:34:41.123Z,13.72
2022-10-17T21:43:03.789Z,13.73
2022-10-17T21:51:27.357Z,13.74
2022-10-17T21:59:51.864Z,13.65
2022-10-17T22:08:14.565Z,13.65
2022-10-17T22:16:38.375Z,13.56
2022-10-17T22:25:01.140Z,13.44
2022-10-17T22:33:24.161Z,13.43
2022-10-17T22:41:46.890Z,13.42
2022-10-17T22:50:09.804Z,13.34
2022-10-17T22:58:34.198Z,13.32
2022-10-17T23:06:56.945Z,13.25
2022-10-17T23:15:19.631Z,13.12
2022-10-17T23:23:42.427Z,13.06
2022-10-17T23:32:05.367Z,13.00
2022-10-17T23:40:28.192Z,12.84
2022-10-17T23:48:51.292Z,12.65
2022-10-17T23:57:14.559Z,12.51
